Hemmingford, Canada
Current Conditions -  °F | °C
As of 11:15 PM on Wednesday 22 Oct 2014 (Local Time) from KFSO Reporting Station
Broken Clouds Broken Clouds  
Wind Chill: 39°   Ceiling: 10000
Heat Index: 45°   Visibility: 10mi
Dew Point: 37°   Wind: 14mph
Humidity: 71%   Direction: 10°N
Pressure: 30.12"   Gusts: NA
Location:  45.05°N, 73.6°W
Report Text: KFSO 230315Z AUTO 01012KT 10SM SCT038 BKN100 07/03 A3012 RMK AO2 T00740025
Loading
Personal Weather Stations






























Interactive Weather Map
Tropical Storm Tracking
New forecast layout! Learn more

10-Day Weather Forecast

Advertisements
Track Severe Weather on mobile